Time;durP1;ratioP1;P1;durP2;ratioP2;P2;SDS_P1;SDS_P2;PMS_P1;PMS_P2;Temp;Humidity;BMP_temperature;BMP_pressure;BME280_temperature;BME280_humidity;BME280_pressure;Samples;Min_cycle;Max_cycle;Signal;HPM_P1;HPM_P2
2021/12/14 00:00:43;;;;;;;10.95;3.10;;;7.70;89.90;;;;;;5068317;28;20040;-66
2021/12/14 00:03:15;;;;;;;5.10;2.80;;;7.80;89.90;;;;;;5066567;28;20080;-66
2021/12/14 00:05:50;;;;;;;5.65;2.10;;;7.80;89.90;;;;;;5041073;28;20059;-70
2021/12/14 00:08:37;;;;;;;4.20;2.20;;;7.80;89.80;;;;;;2166130;28;10025076;-67
2021/12/14 00:11:27;;;;;;;8.05;3.00;;;7.80;89.80;;;;;;3670369;28;10001867;-68
2021/12/14 00:14:15;;;;;;;5.35;2.55;;;7.80;89.80;;;;;;5070491;28;20045;-67
2021/12/14 00:16:52;;;;;;;5.75;2.35;;;7.70;89.80;;;;;;5069559;28;20044;-66
2021/12/14 00:19:20;;;;;;;7.78;3.40;;;7.70;89.90;;;;;;5086142;28;20052;-67
2021/12/14 00:21:51;;;;;;;8.05;2.83;;;7.70;89.90;;;;;;5069705;28;20116;-69
2021/12/14 00:24:21;;;;;;;7.60;3.30;;;7.70;90.00;;;;;;5069230;28;20040;-67
2021/12/14 00:26:51;;;;;;;6.55;3.17;;;7.70;90.00;;;;;;5070196;28;20040;-67
2021/12/14 00:29:21;;;;;;;7.30;3.08;;;7.70;90.00;;;;;;5084877;28;20095;-66
2021/12/14 00:31:49;;;;;;;9.95;2.30;;;7.80;89.90;;;;;;5069740;28;20051;-66
2021/12/14 00:34:23;;;;;;;7.72;2.75;;;7.70;89.80;;;;;;5069717;28;20041;-66
2021/12/14 00:36:52;;;;;;;10.60;3.25;;;7.70;89.90;;;;;;5068434;28;20121;-66
2021/12/14 00:39:20;;;;;;;8.23;3.47;;;7.70;89.80;;;;;;5070021;28;20045;-66
2021/12/14 00:41:48;;;;;;;8.52;3.63;;;7.70;89.90;;;;;;5068017;28;20044;-68
2021/12/14 00:44:15;;;;;;;12.75;4.53;;;7.70;89.80;;;;;;5070286;28;20163;-67
2021/12/14 00:46:42;;;;;;;10.63;3.92;;;7.70;89.80;;;;;;5068876;28;20033;-67
2021/12/14 00:49:12;;;;;;;10.85;3.83;;;7.70;89.90;;;;;;5067780;28;20044;-67
2021/12/14 00:51:39;;;;;;;12.17;4.53;;;7.70;89.90;;;;;;5065718;28;20472;-69
2021/12/14 00:54:12;;;;;;;9.75;3.95;;;7.70;89.90;;;;;;5065332;28;20055;-69
2021/12/14 00:56:40;;;;;;;12.15;4.43;;;7.70;89.90;;;;;;5068538;28;20048;-68
2021/12/14 00:59:09;;;;;;;9.40;3.63;;;7.80;89.90;;;;;;5067310;28;20134;-67
2021/12/14 01:01:41;;;;;;;9.02;4.47;;;7.70;90.00;;;;;;5063551;28;20416;-65
2021/12/14 01:04:13;;;;;;;11.15;3.95;;;7.70;89.90;;;;;;5066017;28;20482;-67
2021/12/14 01:06:45;;;;;;;14.25;4.68;;;7.70;89.90;;;;;;5065396;28;20053;-70
2021/12/14 01:09:18;;;;;;;9.68;4.40;;;7.70;89.90;;;;;;5067501;28;20048;-68
2021/12/14 01:11:47;;;;;;;9.27;3.50;;;7.70;89.90;;;;;;5068898;28;20621;-67
2021/12/14 01:14:17;;;;;;;9.27;3.60;;;7.70;89.90;;;;;;5063577;28;20396;-65
2021/12/14 01:16:53;;;;;;;7.95;3.30;;;7.70;89.90;;;;;;5068331;28;20040;-68
2021/12/14 01:19:26;;;;;;;7.57;3.25;;;7.70;89.80;;;;;;5077039;28;20055;-69
2021/12/14 01:22:14;;;;;;;10.82;3.78;;;7.70;89.80;;;;;;5080996;28;20063;-66
2021/12/14 01:25:03;;;;;;;10.90;3.92;;;7.70;89.90;;;;;;5059737;28;20049;-65
2021/12/14 01:27:35;;;;;;;10.07;4.05;;;7.70;89.90;;;;;;5064986;28;20600;-66
2021/12/14 01:30:07;;;;;;;12.60;4.50;;;7.70;90.00;;;;;;5067593;28;22038;-66
2021/12/14 01:32:39;;;;;;;12.63;5.45;;;7.70;90.00;;;;;;5083795;28;20040;-65
2021/12/14 01:35:12;;;;;;;12.82;4.65;;;7.70;90.00;;;;;;5067275;28;20054;-67
2021/12/14 01:37:46;;;;;;;11.93;3.78;;;7.70;90.00;;;;;;5085006;28;20044;-66
2021/12/14 01:40:45;;;;;;;10.00;4.05;;;7.70;89.90;;;;;;5066946;28;20044;-67
2021/12/14 01:43:07;;;;;;;10.05;4.05;;;7.70;89.90;;;;;;5069193;28;20043;-67
2021/12/14 01:45:39;;;;;;;12.35;3.97;;;7.70;89.90;;;;;;5058880;28;20556;-67
2021/12/14 01:48:08;;;;;;;10.68;4.63;;;7.70;89.90;;;;;;5060915;28;20068;-67
2021/12/14 01:51:07;;;;;;;11.20;4.25;;;7.70;89.90;;;;;;5060871;28;20171;-66
2021/12/14 01:53:55;;;;;;;10.67;4.50;;;7.70;90.00;;;;;;5057248;28;20068;-67
2021/12/14 01:56:28;;;;;;;13.73;4.97;;;7.70;90.00;;;;;;5061719;28;20120;-68
2021/12/14 01:58:59;;;;;;;11.35;4.78;;;7.70;89.90;;;;;;5064333;28;20079;-68
2021/12/14 02:01:35;;;;;;;10.68;4.43;;;7.70;89.90;;;;;;5077787;28;20534;-68
2021/12/14 02:04:10;;;;;;;10.80;4.22;;;7.70;89.90;;;;;;5067703;28;20045;-66
2021/12/14 02:06:37;;;;;;;10.27;3.72;;;7.70;89.90;;;;;;5060635;28;20048;-67
2021/12/14 02:09:07;;;;;;;13.98;4.78;;;7.70;90.00;;;;;;5080751;28;20561;-66
2021/12/14 02:11:41;;;;;;;9.93;4.43;;;7.70;90.00;;;;;;5083539;28;20057;-66
2021/12/14 02:14:08;;;;;;;8.68;4.15;;;7.70;90.00;;;;;;5066670;28;20067;-67
2021/12/14 02:16:37;;;;;;;9.82;4.47;;;7.70;90.00;;;;;;5066527;28;20056;-67
2021/12/14 02:19:07;;;;;;;10.68;3.85;;;7.70;89.90;;;;;;5066119;28;20494;-66
2021/12/14 02:21:36;;;;;;;8.52;4.15;;;7.70;89.90;;;;;;5068318;28;20037;-66
2021/12/14 02:24:07;;;;;;;10.70;3.63;;;7.70;89.90;;;;;;5067444;28;20136;-67
2021/12/14 02:26:37;;;;;;;10.70;4.55;;;7.70;89.80;;;;;;5083389;28;20056;-67
2021/12/14 02:29:07;;;;;;;9.73;4.35;;;7.70;89.90;;;;;;5065925;28;20084;-67
2021/12/14 02:31:37;;;;;;;9.52;3.75;;;7.70;89.90;;;;;;5058282;28;20048;-67
2021/12/14 02:34:05;;;;;;;7.35;3.28;;;7.70;89.90;;;;;;5050631;28;20048;-66
2021/12/14 02:36:38;;;;;;;9.15;3.60;;;7.70;89.90;;;;;;5056074;28;20040;-67
2021/12/14 02:39:11;;;;;;;12.10;4.72;;;7.70;89.80;;;;;;5061072;28;20060;-68
2021/12/14 02:41:46;;;;;;;10.57;3.95;;;7.70;89.90;;;;;;5062600;28;20116;-67
2021/12/14 02:44:14;;;;;;;10.25;3.83;;;7.70;89.90;;;;;;5049722;28;20048;-68
2021/12/14 02:46:45;;;;;;;10.13;3.90;;;7.70;90.00;;;;;;5061127;28;20357;-68
2021/12/14 02:49:16;;;;;;;7.82;3.85;;;7.70;89.90;;;;;;5064914;28;20131;-66
2021/12/14 02:51:47;;;;;;;9.40;3.80;;;7.70;89.90;;;;;;5063557;28;20051;-69
2021/12/14 02:54:24;;;;;;;10.35;3.30;;;7.70;89.80;;;;;;5066076;28;20047;-68
2021/12/14 02:56:56;;;;;;;9.68;4.43;;;7.60;89.80;;;;;;5063425;28;20276;-69
2021/12/14 02:59:25;;;;;;;10.07;3.88;;;7.70;89.80;;;;;;5063658;28;20180;-70
2021/12/14 03:01:55;;;;;;;9.10;3.25;;;7.60;89.80;;;;;;5061957;28;20048;-69
2021/12/14 03:04:22;;;;;;;9.73;3.90;;;7.60;89.80;;;;;;5082154;28;20045;-68
2021/12/14 03:06:54;;;;;;;7.30;2.97;;;7.60;89.80;;;;;;5067592;28;20051;-68
2021/12/14 03:09:36;;;;;;;8.95;3.65;;;7.60;89.90;;;;;;5065038;28;20075;-68
2021/12/14 03:12:08;;;;;;;6.25;2.75;;;7.60;89.80;;;;;;5067434;28;20075;-68
2021/12/14 03:14:36;;;;;;;7.13;3.30;;;7.60;89.80;;;;;;5067197;28;20047;-68
2021/12/14 03:17:04;;;;;;;6.25;2.75;;;7.60;89.90;;;;;;5070221;28;20040;-68
2021/12/14 03:19:33;;;;;;;5.53;2.83;;;7.60;89.80;;;;;;5068272;28;20163;-68
2021/12/14 03:22:21;;;;;;;6.63;3.00;;;7.60;89.80;;;;;;5068417;28;20123;-68
2021/12/14 03:24:48;;;;;;;7.03;2.80;;;7.60;89.70;;;;;;5072002;28;20046;-68
2021/12/14 03:27:15;;;;;;;8.45;3.22;;;7.60;89.80;;;;;;5085446;28;20044;-68
2021/12/14 03:29:49;;;;;;;7.82;2.67;;;7.60;89.80;;;;;;5071017;28;20468;-67
2021/12/14 03:32:16;;;;;;;8.13;2.85;;;7.60;89.80;;;;;;5086896;28;20045;-68
2021/12/14 03:34:44;;;;;;;8.00;2.47;;;7.60;89.70;;;;;;5070196;28;20040;-69
2021/12/14 03:37:17;;;;;;;4.45;2.72;;;7.60;89.80;;;;;;5070416;28;20068;-68
2021/12/14 03:39:48;;;;;;;7.55;2.45;;;7.60;89.70;;;;;;5070626;28;20067;-69
2021/12/14 03:42:22;;;;;;;5.03;2.10;;;7.60;89.70;;;;;;5085943;28;20041;-68
2021/12/14 03:44:52;;;;;;;5.00;2.22;;;7.60;89.70;;;;;;5059348;28;20371;-67
2021/12/14 03:47:28;;;;;;;4.95;2.13;;;7.60;89.70;;;;;;5066154;28;20145;-68
2021/12/14 03:49:59;;;;;;;4.75;2.00;;;7.60;89.80;;;;;;5080378;28;20094;-69
2021/12/14 03:52:30;;;;;;;5.07;2.22;;;7.60;89.70;;;;;;5068626;28;20064;-67
2021/12/14 03:55:04;;;;;;;4.28;2.72;;;7.60;89.70;;;;;;5056425;28;20524;-68
2021/12/14 03:57:35;;;;;;;6.30;2.60;;;7.60;89.80;;;;;;5057163;28;20217;-67
2021/12/14 04:00:06;;;;;;;6.40;2.42;;;7.60;89.70;;;;;;5059485;28;20683;-68
2021/12/14 04:02:37;;;;;;;7.60;2.55;;;7.60;89.80;;;;;;5063133;28;20044;-68
2021/12/14 04:05:11;;;;;;;6.10;2.83;;;7.60;89.80;;;;;;5060076;28;20056;-67
2021/12/14 04:07:45;;;;;;;6.85;2.90;;;7.60;89.80;;;;;;5057187;28;20082;-67
2021/12/14 04:10:23;;;;;;;5.57;2.83;;;7.60;89.70;;;;;;5077058;28;20051;-67
2021/12/14 04:12:51;;;;;;;7.30;2.70;;;7.60;89.70;;;;;;5059855;28;20051;-66
2021/12/14 04:15:19;;;;;;;7.18;3.15;;;7.60;89.70;;;;;;5075276;28;20056;-68
2021/12/14 04:17:47;;;;;;;6.97;2.50;;;7.60;89.70;;;;;;5077611;28;20160;-68
2021/12/14 04:20:19;;;;;;;5.47;2.17;;;7.60;89.70;;;;;;5059005;28;20040;-69
2021/12/14 04:22:48;;;;;;;5.68;2.35;;;7.60;89.70;;;;;;5060168;28;20049;-68
2021/12/14 04:25:20;;;;;;;5.82;2.67;;;7.60;89.70;;;;;;5079511;28;20553;-67
2021/12/14 04:27:50;;;;;;;;;;;7.60;89.70;;;;;;5060785;28;20044;-69
2021/12/14 04:30:20;;;;;;;5.32;2.05;;;7.60;89.70;;;;;;5058956;28;19935;-69
2021/12/14 04:32:48;;;;;;;6.47;2.13;;;7.60;89.70;;;;;;5076232;28;20578;-68
2021/12/14 04:35:16;;;;;;;4.78;2.17;;;7.60;89.70;;;;;;5059443;28;20041;-68
2021/12/14 04:37:47;;;;;;;7.20;2.78;;;7.60;89.70;;;;;;5074683;28;20040;-69
2021/12/14 04:40:36;;;;;;;7.72;2.58;;;7.60;89.70;;;;;;5060048;28;20107;-68
2021/12/14 04:54:07;;;;;;;5.25;2.53;;;7.60;89.70;;;;;;5059099;28;20061;-67
2021/12/14 04:56:41;;;;;;;5.80;3.13;;;7.60;89.70;;;;;;5079275;28;20048;-67
2021/12/14 04:59:12;;;;;;;6.38;3.03;;;7.60;89.70;;;;;;5061509;28;20048;-68
2021/12/14 05:01:41;;;;;;;5.60;2.33;;;7.60;89.70;;;;;;5059016;28;20047;-68
2021/12/14 05:04:15;;;;;;;6.03;2.50;;;7.60;89.70;;;;;;5059320;28;20549;-67
2021/12/14 05:06:48;;;;;;;6.38;2.58;;;7.60;89.70;;;;;;5061232;28;20133;-68
2021/12/14 05:09:21;;;;;;;5.85;2.58;;;7.60;89.60;;;;;;5076322;28;20060;-67
2021/12/14 05:11:54;;;;;;;4.07;2.10;;;7.60;89.70;;;;;;5057396;28;20129;-67
2021/12/14 05:14:23;;;;;;;4.93;2.22;;;7.60;89.60;;;;;;5076076;28;20044;-67
2021/12/14 05:16:55;;;;;;;6.10;2.13;;;7.60;89.70;;;;;;5054723;28;20494;-68
2021/12/14 05:19:25;;;;;;;6.05;1.92;;;7.60;89.60;;;;;;5057219;28;20383;-69
2021/12/14 05:21:53;;;;;;;4.07;1.83;;;7.60;89.60;;;;;;5074281;28;20140;-68
2021/12/14 05:24:24;;;;;;;2.78;1.45;;;7.60;89.70;;;;;;5055707;28;20045;-68
2021/12/14 05:27:00;;;;;;;4.00;1.83;;;7.60;89.60;;;;;;5075109;28;20083;-68
2021/12/14 05:29:33;;;;;;;3.25;1.80;;;7.60;89.70;;;;;;5061624;28;20040;-68
2021/12/14 05:32:05;;;;;;;2.60;1.30;;;7.60;89.60;;;;;;5076140;28;20101;-68
2021/12/14 05:34:36;;;;;;;3.00;1.15;;;7.60;89.60;;;;;;5053881;28;20052;-68
2021/12/14 05:37:08;;;;;;;2.90;1.13;;;7.60;89.60;;;;;;5056597;28;20056;-67
2021/12/14 05:39:49;;;;;;;1.77;0.93;;;7.60;89.60;;;;;;5059302;28;20186;-69
2021/12/14 05:45:17;;;;;;;2.50;1.20;;;7.60;89.60;;;;;;5056244;28;20075;-69
2021/12/14 05:47:47;;;;;;;2.20;1.02;;;7.60;89.60;;;;;;5075099;28;20554;-67
2021/12/14 05:50:26;;;;;;;2.85;1.13;;;7.60;89.60;;;;;;5072933;28;20781;-68
2021/12/14 05:52:54;;;;;;;4.40;1.55;;;7.60;89.60;;;;;;5056997;28;20111;-69
2021/12/14 05:55:25;;;;;;;3.63;1.23;;;7.60;89.60;;;;;;5057729;28;20098;-69
2021/12/14 05:57:54;;;;;;;2.47;1.33;;;7.60;89.50;;;;;;5057299;28;20564;-67
2021/12/14 06:00:22;;;;;;;2.80;1.25;;;7.60;89.60;;;;;;5071870;28;20052;-69
2021/12/14 06:02:58;;;;;;;2.63;1.48;;;7.60;89.60;;;;;;5073830;28;20071;-69
2021/12/14 06:05:30;;;;;;;4.03;1.48;;;7.60;89.60;;;;;;5054777;28;20293;-68
2021/12/14 06:07:59;;;;;;;3.17;1.70;;;7.60;89.60;;;;;;5068733;28;20102;-68
2021/12/14 06:10:27;;;;;;;3.85;1.60;;;7.60;89.60;;;;;;5074497;28;20052;-67
2021/12/14 06:12:58;;;;;;;3.60;2.05;;;7.60;89.60;;;;;;5064792;28;20127;-69
2021/12/14 06:15:29;;;;;;;4.57;2.08;;;7.60;89.60;;;;;;5058609;28;20043;-70
2021/12/14 06:18:09;;;;;;;6.68;2.00;;;7.60;89.60;;;;;;5073789;28;20048;-67
2021/12/14 06:20:50;;;;;;;3.53;1.55;;;7.60;89.70;;;;;;5047973;28;20086;-68
2021/12/14 06:23:25;;;;;;;4.88;2.40;;;7.60;89.70;;;;;;5054002;28;20086;-68
2021/12/14 06:26:19;;;;;;;4.57;2.33;;;7.60;89.70;;;;;;5063497;28;20048;-67
2021/12/14 06:28:48;;;;;;;7.32;2.28;;;7.60;89.70;;;;;;5066645;28;20485;-68
2021/12/14 06:31:15;;;;;;;6.80;2.58;;;7.60;89.70;;;;;;5082632;28;20414;-69
2021/12/14 06:33:42;;;;;;;6.00;2.92;;;7.60;89.70;;;;;;5066758;28;20052;-68
2021/12/14 06:36:36;;;;;;;7.88;2.90;;;7.60;89.70;;;;;;5066419;28;20091;-69
2021/12/14 06:39:06;;;;;;;8.93;2.83;;;7.60;89.70;;;;;;5067995;28;20045;-67
2021/12/14 06:41:33;;;;;;;8.20;3.00;;;7.60;89.70;;;;;;5064047;28;20040;-69
2021/12/14 06:44:02;;;;;;;8.38;3.40;;;7.60;89.70;;;;;;5065014;28;20151;-68
2021/12/14 06:46:33;;;;;;;8.77;2.70;;;7.60;89.70;;;;;;5061763;28;20063;-68
2021/12/14 06:49:04;;;;;;;6.97;2.72;;;7.60;89.80;;;;;;5061196;28;20153;-67
2021/12/14 06:51:36;;;;;;;5.63;2.70;;;7.60;89.70;;;;;;5059943;28;20311;-69
2021/12/14 06:54:12;;;;;;;6.75;2.95;;;7.60;89.70;;;;;;5055518;28;20372;-68
2021/12/14 06:57:00;;;;;;;9.35;3.13;;;7.60;89.80;;;;;;5061155;28;20051;-68
2021/12/14 06:59:36;;;;;;;6.38;2.78;;;7.70;89.70;;;;;;5062273;28;20048;-68
2021/12/14 07:02:11;;;;;;;6.75;2.67;;;7.70;89.70;;;;;;5063064;28;20048;-68
2021/12/14 07:05:18;;;;;;;8.52;3.45;;;7.70;89.70;;;;;;5054654;28;20048;-68
2021/12/14 07:07:49;;;;;;;11.75;4.13;;;7.70;89.70;;;;;;5078871;28;20068;-68
2021/12/14 07:10:16;;;;;;;9.65;3.70;;;7.60;89.70;;;;;;5059878;28;20098;-68
2021/12/14 07:12:44;;;;;;;13.05;3.83;;;7.60;89.70;;;;;;5062682;28;20059;-69
2021/12/14 07:15:18;;;;;;;12.43;3.97;;;7.60;89.70;;;;;;5061426;28;20037;-68
2021/12/14 07:17:52;;;;;;;12.38;3.10;;;7.70;89.70;;;;;;5065507;28;20054;-69
2021/12/14 07:20:28;;;;;;;9.75;2.53;;;7.70;89.70;;;;;;5057363;28;20037;-68
2021/12/14 07:23:00;;;;;;;7.07;2.75;;;7.60;89.70;;;;;;5059240;28;20123;-67
2021/12/14 07:25:30;;;;;;;4.70;1.88;;;7.70;89.70;;;;;;5062570;28;20155;-68
2021/12/14 07:27:58;;;;;;;7.75;2.00;;;7.60;89.70;;;;;;5057430;28;20095;-69
2021/12/14 07:30:34;;;;;;;4.18;1.80;;;7.70;89.70;;;;;;5061998;28;20044;-69
2021/12/14 07:33:09;;;;;;;6.68;2.65;;;7.60;89.70;;;;;;5060274;28;20056;-68
2021/12/14 07:35:48;;;;;;;9.07;2.35;;;7.60;89.70;;;;;;5060178;28;20505;-67
2021/12/14 07:38:28;;;;;;;3.83;1.45;;;7.70;89.70;;;;;;5060854;28;20045;-69
2021/12/14 07:40:58;;;;;;;2.45;1.23;;;7.70;89.60;;;;;;5060625;28;20056;-67
2021/12/14 07:43:27;;;;;;;;;;;7.70;89.60;;;;;;5061891;28;20033;-67
2021/12/14 07:45:56;;;;;;;1.67;0.90;;;7.70;89.60;;;;;;5058255;28;19924;-67
2021/12/14 07:48:41;;;;;;;3.93;1.30;;;7.70;89.60;;;;;;5061163;28;20048;-69
2021/12/14 07:51:09;;;;;;;2.88;1.40;;;7.70;89.60;;;;;;5061966;28;20142;-69
2021/12/14 07:53:41;;;;;;;3.13;1.30;;;7.70;89.60;;;;;;5060169;28;20044;-69
2021/12/14 07:56:10;;;;;;;3.83;1.52;;;7.70;89.60;;;;;;5060058;28;20045;-68
2021/12/14 07:58:41;;;;;;;5.53;1.67;;;7.70;89.60;;;;;;5060009;28;20059;-67
2021/12/14 08:01:10;;;;;;;2.72;1.27;;;7.70;89.70;;;;;;5056591;28;20800;-69
2021/12/14 08:03:37;;;;;;;2.90;1.30;;;7.70;89.60;;;;;;5059938;28;20044;-68
2021/12/14 08:06:06;;;;;;;4.53;2.05;;;7.70;89.70;;;;;;5061494;28;20162;-68
2021/12/14 08:08:42;;;;;;;5.35;1.58;;;7.70;89.70;;;;;;5062080;28;20049;-67
2021/12/14 08:11:46;;;;;;;2.95;1.30;;;7.70;89.70;;;;;;5064237;28;20056;-68
2021/12/14 08:14:17;;;;;;;3.45;1.20;;;7.70;89.60;;;;;;5063712;28;20047;-68
2021/12/14 08:16:50;;;;;;;3.45;1.60;;;7.70;89.70;;;;;;5063055;28;20041;-67
2021/12/14 08:19:27;;;;;;;3.05;1.38;;;7.70;89.60;;;;;;5065001;28;20036;-68
2021/12/14 08:21:55;;;;;;;2.28;1.30;;;7.70;89.70;;;;;;5058006;28;20052;-68
2021/12/14 08:24:22;;;;;;;3.92;1.92;;;7.70;89.70;;;;;;5059815;28;20040;-69
2021/12/14 08:26:52;;;;;;;6.38;2.55;;;7.70;89.80;;;;;;5063737;28;20531;-67
2021/12/14 08:29:21;;;;;;;4.85;2.45;;;7.70;89.80;;;;;;5061284;28;20044;-68
2021/12/14 08:31:53;;;;;;;5.20;2.70;;;7.70;89.80;;;;;;5062039;28;20032;-68
2021/12/14 08:34:22;;;;;;;8.85;2.80;;;7.70;89.80;;;;;;5062228;28;20041;-66
2021/12/14 08:36:53;;;;;;;6.28;2.85;;;7.80;89.70;;;;;;5063339;28;20048;-68
2021/12/14 08:39:25;;;;;;;6.07;2.58;;;7.70;89.70;;;;;;5062272;28;20044;-67
2021/12/14 08:42:07;;;;;;;6.68;2.72;;;7.80;89.70;;;;;;5062298;28;20044;-67
2021/12/14 08:44:39;;;;;;;6.50;3.08;;;7.80;89.70;;;;;;5058885;28;20040;-68
2021/12/14 08:47:11;;;;;;;7.03;3.30;;;7.80;89.70;;;;;;5064665;28;20042;-68
2021/12/14 08:49:39;;;;;;;6.55;3.05;;;7.80;89.70;;;;;;5060798;28;20048;-67
2021/12/14 08:52:08;;;;;;;7.00;2.95;;;7.80;89.70;;;;;;5061844;28;20209;-70
2021/12/14 08:54:42;;;;;;;8.27;3.58;;;7.80;89.70;;;;;;5062918;28;20047;-68
2021/12/14 08:57:14;;;;;;;7.03;3.50;;;7.80;89.70;;;;;;5062924;28;20116;-69
2021/12/14 08:59:46;;;;;;;8.02;3.78;;;7.80;89.70;;;;;;5062185;28;20033;-69
2021/12/14 09:02:16;;;;;;;7.43;3.75;;;7.80;89.70;;;;;;5059146;28;20033;-70
2021/12/14 09:04:49;;;;;;;11.25;3.95;;;7.90;89.70;;;;;;5060290;28;20036;-70
2021/12/14 09:07:19;;;;;;;9.88;4.78;;;7.80;89.70;;;;;;5060404;28;20051;-70
2021/12/14 09:09:48;;;;;;;6.72;3.75;;;7.90;89.70;;;;;;5061436;28;20044;-70
2021/12/14 09:12:19;;;;;;;11.30;5.18;;;7.90;89.70;;;;;;5060669;28;20036;-69
2021/12/14 09:14:49;;;;;;;10.43;4.03;;;7.90;89.70;;;;;;5059731;28;20479;-69
2021/12/14 09:17:21;;;;;;;7.03;3.65;;;7.90;89.70;;;;;;5060707;28;20413;-70
2021/12/14 09:19:52;;;;;;;9.07;3.97;;;7.90;89.80;;;;;;5059451;28;20049;-70
2021/12/14 09:22:24;;;;;;;9.13;4.63;;;7.90;89.70;;;;;;5060446;28;20051;-70
2021/12/14 09:24:54;;;;;;;11.63;5.30;;;7.90;89.70;;;;;;5061401;28;20146;-71
2021/12/14 09:27:25;;;;;;;11.95;4.50;;;7.90;89.70;;;;;;5058574;28;20098;-71
2021/12/14 09:29:53;;;;;;;10.00;4.57;;;8.00;89.70;;;;;;5056427;28;20045;-69
2021/12/14 09:32:27;;;;;;;9.48;4.78;;;8.00;89.60;;;;;;5058572;28;20051;-70
2021/12/14 09:34:56;;;;;;;10.48;5.22;;;8.00;89.60;;;;;;5059304;28;20075;-70
2021/12/14 09:37:25;;;;;;;12.00;5.80;;;8.00;89.60;;;;;;5059035;28;20401;-69
2021/12/14 09:39:56;;;;;;;13.20;6.05;;;8.00;89.60;;;;;;5057471;28;20041;-69
2021/12/14 09:42:26;;;;;;;12.98;6.25;;;8.00;89.60;;;;;;5058384;28;20067;-70
2021/12/14 09:44:55;;;;;;;16.10;8.20;;;8.00;89.60;;;;;;5056692;28;20040;-69
2021/12/14 09:47:29;;;;;;;14.23;6.60;;;8.10;89.60;;;;;;5059076;28;20033;-70
2021/12/14 09:49:59;;;;;;;15.20;6.88;;;8.00;89.60;;;;;;5059719;28;20040;-70
2021/12/14 09:52:31;;;;;;;14.95;6.93;;;8.00;89.70;;;;;;5061716;28;20041;-69
2021/12/14 09:55:00;;;;;;;18.58;8.13;;;8.00;89.80;;;;;;5059001;28;20047;-71
2021/12/14 09:57:35;;;;;;;16.83;8.30;;;8.00;89.80;;;;;;5059898;28;20486;-69
2021/12/14 10:00:08;;;;;;;17.75;7.57;;;8.00;89.80;;;;;;5059770;28;20036;-69
2021/12/14 10:02:44;;;;;;;18.20;8.25;;;8.00;89.90;;;;;;5060450;28;20406;-71
2021/12/14 10:05:15;;;;;;;17.02;7.78;;;8.10;90.00;;;;;;5060099;28;20045;-70
2021/12/14 10:07:43;;;;;;;18.00;8.00;;;8.00;90.10;;;;;;5061909;28;20091;-69
2021/12/14 10:10:14;;;;;;;16.33;7.53;;;8.00;90.10;;;;;;5060092;28;20032;-70
2021/12/14 10:12:53;;;;;;;22.50;10.30;;;8.00;90.10;;;;;;5067561;28;20050;-70
2021/12/14 10:15:33;;;;;;;20.70;9.45;;;8.00;90.10;;;;;;5067652;28;20033;-69
2021/12/14 10:18:04;;;;;;;19.33;9.95;;;8.00;90.20;;;;;;5059981;28;20655;-69
2021/12/14 10:20:40;;;;;;;17.70;10.18;;;8.10;90.20;;;;;;5061884;28;20140;-69
2021/12/14 10:23:08;;;;;;;17.08;9.25;;;8.10;90.20;;;;;;5059831;28;20064;-70
2021/12/14 10:25:36;;;;;;;20.63;9.77;;;8.10;90.20;;;;;;5078465;28;20495;-70
2021/12/14 10:28:03;;;;;;;19.55;9.60;;;8.10;90.30;;;;;;5067465;28;20064;-71
2021/12/14 10:30:34;;;;;;;22.92;9.85;;;8.10;90.30;;;;;;5066091;28;20044;-70
2021/12/14 10:33:03;;;;;;;20.38;9.40;;;8.10;90.30;;;;;;5065208;28;20498;-70
2021/12/14 10:35:38;;;;;;;21.95;11.13;;;8.10;90.30;;;;;;5064136;28;20048;-70
2021/12/14 10:38:17;;;;;;;19.38;9.48;;;8.10;90.40;;;;;;5063653;28;20475;-70
2021/12/14 10:43:34;;;;;;;21.02;10.57;;;8.10;90.40;;;;;;5066386;28;20119;-71
2021/12/14 10:46:05;;;;;;;22.90;9.07;;;8.10;90.40;;;;;;5064360;28;20051;-71
2021/12/14 10:48:37;;;;;;;22.35;10.05;;;8.10;90.40;;;;;;5076883;28;20074;-69
2021/12/14 10:51:07;;;;;;;26.60;11.77;;;8.10;90.40;;;;;;5063031;28;20044;-70
2021/12/14 10:53:35;;;;;;;20.48;10.30;;;8.10;90.30;;;;;;5064089;28;20509;-70
2021/12/14 10:56:11;;;;;;;23.08;10.60;;;8.10;90.30;;;;;;5063427;28;20043;-70
2021/12/14 10:58:40;;;;;;;24.52;11.43;;;8.10;90.40;;;;;;5059265;28;20116;-70
2021/12/14 11:01:09;;;;;;;20.27;9.38;;;8.20;90.30;;;;;;5056652;28;20055;-69
2021/12/14 11:03:44;;;;;;;23.38;10.25;;;8.20;90.30;;;;;;5058669;28;20595;-69
2021/12/14 11:06:15;;;;;;;23.63;10.48;;;8.20;90.40;;;;;;5062740;28;20052;-69
2021/12/14 11:08:50;;;;;;;17.58;9.63;;;8.20;90.40;;;;;;5063513;28;20121;-70
2021/12/14 11:11:21;;;;;;;19.55;10.68;;;8.20;90.40;;;;;;5060100;28;20642;-70
2021/12/14 11:14:00;;;;;;;22.90;9.57;;;8.20;90.40;;;;;;5060984;28;20417;-70
2021/12/14 11:18:08;;;;;;;17.45;7.95;;;8.20;90.40;;;;;;5064135;28;20120;-70
2021/12/14 11:19:33;;;;;;;20.65;8.60;;;8.20;90.40;;;;;;5060423;28;20115;-70
2021/12/14 11:22:09;;;;;;;18.17;9.32;;;8.20;90.50;;;;;;5060208;28;20128;-69
2021/12/14 11:24:38;;;;;;;21.00;11.15;;;8.20;90.50;;;;;;5062505;28;20394;-70
2021/12/14 11:27:13;;;;;;;18.83;8.93;;;8.20;90.50;;;;;;5058324;28;20037;-70
2021/12/14 11:29:40;;;;;;;19.55;8.73;;;8.20;90.50;;;;;;5063872;28;20074;-70
2021/12/14 11:32:08;;;;;;;17.27;8.52;;;8.20;90.50;;;;;;5064815;28;20040;-69
2021/12/14 11:34:39;;;;;;;22.80;8.68;;;8.20;90.50;;;;;;5056926;28;20048;-69
2021/12/14 11:37:14;;;;;;;18.00;9.45;;;8.20;90.50;;;;;;5061167;28;20036;-70
2021/12/14 11:39:45;;;;;;;19.75;9.57;;;8.20;90.40;;;;;;5063695;28;20037;-70
2021/12/14 11:42:14;;;;;;;17.75;8.90;;;8.20;90.40;;;;;;5060626;28;20047;-70
2021/12/14 11:44:45;;;;;;;19.10;9.75;;;8.20;90.40;;;;;;5061750;28;20048;-70
2021/12/14 11:47:41;;;;;;;17.77;8.77;;;8.20;90.40;;;;;;5063941;28;20045;-69
2021/12/14 11:50:17;;;;;;;19.25;9.27;;;8.20;90.40;;;;;;5063672;28;20047;-70
2021/12/14 11:52:51;;;;;;;18.05;8.43;;;8.20;90.30;;;;;;5061352;28;20502;-70
2021/12/14 11:55:28;;;;;;;22.25;9.90;;;8.20;90.40;;;;;;5059757;28;20406;-70
2021/12/14 11:58:19;;;;;;;21.92;9.18;;;8.30;90.40;;;;;;5058528;28;20049;-70
2021/12/14 12:00:51;;;;;;;17.65;8.82;;;8.30;90.30;;;;;;5058085;28;20064;-70
2021/12/14 12:03:26;;;;;;;20.48;8.93;;;8.20;90.30;;;;;;5061858;28;20049;-70
2021/12/14 12:06:02;;;;;;;17.27;8.38;;;8.20;90.30;;;;;;5060298;28;20051;-71
2021/12/14 12:11:18;;;;;;;18.20;9.48;;;8.30;90.30;;;;;;5060999;28;20048;-70
2021/12/14 12:13:47;;;;;;;23.33;9.70;;;8.30;90.30;;;;;;5061232;28;20498;-70
2021/12/14 12:16:18;;;;;;;20.85;9.70;;;8.30;90.30;;;;;;5062396;28;20049;-70
2021/12/14 12:19:06;;;;;;;20.88;10.20;;;8.30;90.30;;;;;;5069225;28;20066;-70
2021/12/14 12:21:35;;;;;;;20.77;10.18;;;8.30;90.30;;;;;;5066886;28;20032;-69
2021/12/14 12:24:02;;;;;;;20.70;9.70;;;8.30;90.30;;;;;;5068376;28;20048;-70
2021/12/14 12:26:30;;;;;;;22.52;10.27;;;8.30;90.20;;;;;;5066058;28;20040;-69
2021/12/14 12:29:02;;;;;;;19.98;9.43;;;8.30;90.20;;;;;;5067720;28;20480;-70
2021/12/14 12:31:35;;;;;;;20.52;9.25;;;8.30;90.20;;;;;;5067463;28;20454;-69
2021/12/14 12:34:03;;;;;;;21.35;8.80;;;8.30;90.20;;;;;;5068381;28;20125;-69
2021/12/14 12:36:35;;;;;;;22.05;10.13;;;8.30;90.30;;;;;;5066872;28;20505;-70
2021/12/14 12:39:10;;;;;;;22.45;9.93;;;8.30;90.30;;;;;;5067068;28;20213;-70
2021/12/14 12:41:45;;;;;;;26.08;11.43;;;8.30;90.30;;;;;;5066181;28;20115;-68
2021/12/14 12:44:15;;;;;;;30.35;13.68;;;8.30;90.40;;;;;;5067015;28;20101;-70
2021/12/14 12:46:45;;;;;;;28.17;11.17;;;8.30;90.40;;;;;;5067327;28;20102;-70
2021/12/14 12:49:14;;;;;;;;;;;8.30;90.40;;;;;;5068626;28;20545;-69
2021/12/14 12:52:03;;;;;;;27.30;12.20;;;8.40;90.40;;;;;;5067304;28;19920;-69
2021/12/14 12:54:39;;;;;;;26.03;12.87;;;8.40;90.30;;;;;;5067327;28;20036;-69
2021/12/14 12:57:42;;;;;;;28.42;12.38;;;8.40;90.30;;;;;;5066243;28;20459;-69
2021/12/14 13:00:25;;;;;;;22.23;11.30;;;8.40;90.20;;;;;;5065114;28;20051;-70
2021/12/14 13:02:58;;;;;;;22.92;10.43;;;8.40;90.20;;;;;;5067340;28;20052;-70
2021/12/14 13:05:30;;;;;;;21.55;9.95;;;8.40;90.20;;;;;;5065060;28;20384;-70
2021/12/14 13:08:06;;;;;;;19.85;8.32;;;8.40;90.20;;;;;;5067316;28;20060;-71
2021/12/14 13:10:37;;;;;;;19.42;9.95;;;8.30;90.20;;;;;;5067655;28;20033;-68
2021/12/14 13:13:07;;;;;;;;;;;8.30;90.20;;;;;;5069956;28;20041;-70
2021/12/14 13:15:49;;;;;;;18.35;7.03;;;8.30;90.20;;;;;;5067196;28;19924;-70
2021/12/14 13:18:25;;;;;;;22.67;8.48;;;8.40;90.10;;;;;;5068997;28;20049;-70
2021/12/14 13:20:56;;;;;;;21.77;9.43;;;8.30;90.10;;;;;;5068290;28;20041;-70
2021/12/14 13:23:47;;;;;;;17.67;8.20;;;8.30;90.10;;;;;;5068895;28;20041;-70
2021/12/14 13:26:30;;;;;;;17.48;8.05;;;8.40;90.10;;;;;;5068241;28;20040;-70
2021/12/14 13:29:02;;;;;;;20.58;8.70;;;8.40;90.10;;;;;;5069056;28;20045;-70
2021/12/14 13:31:32;;;;;;;16.40;8.52;;;8.40;90.00;;;;;;5063185;28;20403;-71
2021/12/14 13:34:00;;;;;;;18.20;7.95;;;8.40;90.00;;;;;;5068007;28;20090;-70
2021/12/14 13:36:34;;;;;;;17.00;7.88;;;8.40;89.90;;;;;;5062278;28;20121;-70
2021/12/14 13:39:03;;;;;;;19.70;8.60;;;8.40;90.00;;;;;;5062372;28;20040;-70
2021/12/14 13:41:52;;;;;;;20.95;10.15;;;8.40;90.00;;;;;;5057692;28;20119;-70